Time;durP1;ratioP1;P1;durP2;ratioP2;P2;SDS_P1;SDS_P2;PMS_P1;PMS_P2;Temp;Humidity;BMP_temperature;BMP_pressure;BME280_temperature;BME280_humidity;BME280_pressure;Samples;Min_cycle;Max_cycle;Signal;HPM_P1;HPM_P2
2022/05/16 00:01:31;;;;;;;7.70;4.70;;;;;;;-143.84;76.99;45064.31;5090034;28;21003;-74
2022/05/16 00:03:58;;;;;;;4.73;4.33;;;;;;;-143.84;77.19;45030.03;5090616;28;20489;-74
2022/05/16 00:06:25;;;;;;;4.33;4.00;;;;;;;-143.84;77.59;45052.88;5090045;28;20436;-74
2022/05/16 00:08:55;;;;;;;4.30;3.93;;;;;;;-143.84;77.29;45037.66;5089883;28;20492;-74
2022/05/16 00:11:22;;;;;;;8.33;3.80;;;;;;;-143.84;77.25;45054.78;5090157;28;20487;-74
2022/05/16 00:13:49;;;;;;;9.90;3.90;;;;;;;-143.84;77.23;45062.41;5090678;28;20813;-74
2022/05/16 00:16:17;;;;;;;6.50;3.67;;;;;;;-143.84;77.37;45062.41;5090458;28;20500;-74
2022/05/16 00:18:45;;;;;;;5.43;4.47;;;;;;;-143.84;77.31;45050.97;5089009;28;20435;-75
2022/05/16 00:21:12;;;;;;;3.87;2.80;;;;;;;-143.84;76.95;45041.44;5089931;28;20485;-74
2022/05/16 00:23:40;;;;;;;4.67;4.30;;;;;;;-143.84;76.79;45049.06;5090236;28;20431;-74
2022/05/16 00:26:07;;;;;;;7.00;2.87;;;;;;;-143.84;76.52;45047.16;5090853;28;20443;-74
2022/05/16 00:28:34;;;;;;;4.70;3.80;;;;;;;-143.84;76.41;45075.72;5089293;28;20955;-76
2022/05/16 00:31:01;;;;;;;6.60;3.60;;;;;;;-143.84;76.47;45079.53;5089457;28;20518;-76
2022/05/16 00:33:28;;;;;;;3.27;3.07;;;;;;;-143.84;76.21;45050.97;5089352;28;20439;-76
2022/05/16 00:35:57;;;;;;;4.00;3.60;;;;;;;-143.84;75.90;45062.41;5089290;28;20857;-76
2022/05/16 00:38:24;;;;;;;3.93;3.63;;;;;;;-143.84;75.27;45056.69;5089431;28;20448;-76
2022/05/16 00:40:51;;;;;;;3.10;2.90;;;;;;;-143.84;75.12;45068.13;5092659;28;20440;-76
2022/05/16 00:43:25;;;;;;;5.43;3.27;;;;;;;-143.84;75.04;45068.13;5093353;28;20447;-76
2022/05/16 00:45:52;;;;;;;3.23;3.03;;;;;;;-143.84;74.31;45052.88;5093480;28;20477;-76
2022/05/16 00:48:19;;;;;;;3.90;3.57;;;;;;;-143.84;74.27;45079.53;5093438;28;20443;-76
2022/05/16 00:50:47;;;;;;;5.73;3.37;;;;;;;-143.84;73.57;45066.22;5093202;28;20986;-76
2022/05/16 00:53:15;;;;;;;4.40;3.33;;;;;;;-143.84;73.13;45068.13;5093278;28;20940;-76
2022/05/16 00:55:44;;;;;;;4.20;3.43;;;;;;;-143.84;71.46;45070.00;5093386;28;20440;-76
2022/05/16 00:58:15;;;;;;;5.90;2.77;;;;;;;-143.84;71.17;45071.91;5093182;28;20439;-76
2022/05/16 01:00:44;;;;;;;4.63;3.10;;;;;;;-143.84;69.63;45058.59;5098829;28;20461;-76
2022/05/16 01:06:00;;;;;;;3.53;2.80;;;;;;;-143.84;67.70;45039.53;5112448;28;20430;-76
2022/05/16 01:08:30;;;;;;;3.63;2.80;;;;;;;-143.84;66.40;45060.50;5111840;27;20442;-76
2022/05/16 01:11:02;;;;;;;3.07;2.83;;;;;;;-143.84;66.58;45056.69;5112234;28;20511;-76
2022/05/16 01:13:31;;;;;;;3.70;2.57;;;;;;;-143.84;67.41;45058.59;5113159;27;20506;-76
2022/05/16 01:16:00;;;;;;;3.40;2.97;;;;;;;-143.84;67.56;45070.00;5113117;28;20434;-76
2022/05/16 01:18:28;;;;;;;4.87;2.83;;;;;;;-143.84;67.96;45047.16;5113313;28;21252;-76
2022/05/16 01:21:08;;;;;;;3.20;2.70;;;;;;;-143.84;68.81;45064.31;5113247;28;20442;-76
2022/05/16 01:23:40;;;;;;;3.30;3.00;;;;;;;-143.84;68.47;45079.53;5113212;28;20434;-76
2022/05/16 01:26:12;;;;;;;3.60;3.30;;;;;;;-143.84;67.07;45052.88;5113069;28;20443;-76
2022/05/16 01:28:40;;;;;;;5.43;3.10;;;;;;;-143.84;66.07;45066.22;5113147;28;20431;-76
2022/05/16 01:31:07;;;;;;;2.83;2.63;;;;;;;-143.84;65.99;45077.63;5113050;28;20473;-76
2022/05/16 01:33:34;;;;;;;3.43;3.13;;;;;;;-143.84;65.16;45062.41;5112990;28;20799;-76
2022/05/16 01:36:01;;;;;;;3.00;2.50;;;;;;;-143.84;64.48;45047.16;5112719;28;20446;-76
2022/05/16 01:38:31;;;;;;;3.63;2.80;;;;;;;-143.84;64.51;45096.66;5112963;28;20467;-76
2022/05/16 01:41:02;;;;;;;3.20;3.00;;;;;;;-143.84;64.60;45060.50;5111786;28;21095;-76
2022/05/16 01:43:32;;;;;;;3.47;3.17;;;;;;;-143.84;65.79;45049.06;5112246;28;20865;-76
2022/05/16 01:45:59;;;;;;;3.17;2.87;;;;;;;-143.84;66.05;45054.78;5112970;28;20446;-72
2022/05/16 01:48:30;;;;;;;3.03;2.83;;;;;;;-143.84;66.57;45052.88;5112675;28;20442;-73
2022/05/16 01:50:59;;;;;;;3.60;3.30;;;;;;;-143.84;68.40;45064.31;5111926;28;20833;-73
2022/05/16 01:53:27;;;;;;;4.63;3.70;;;;;;;-143.84;69.49;45033.84;5111683;28;20450;-73
2022/05/16 01:55:54;;;;;;;13.53;3.83;;;;;;;-143.84;70.85;45068.13;5112195;28;20535;-72
2022/05/16 01:58:23;;;;;;;4.50;3.17;;;;;;;-143.84;71.37;45039.53;5112712;28;20449;-72
2022/05/16 02:00:51;;;;;;;4.00;3.60;;;;;;;-143.84;72.29;45066.22;5112715;28;20822;-72
2022/05/16 02:03:19;;;;;;;3.93;3.63;;;;;;;-143.84;73.30;45041.44;5112302;28;20543;-72
2022/05/16 02:05:47;;;;;;;4.50;4.10;;;;;;;-143.84;74.84;45049.06;5112417;28;20453;-72
2022/05/16 02:08:15;;;;;;;4.70;3.63;;;;;;;-143.84;76.18;45043.34;5112460;28;20511;-72
2022/05/16 02:10:43;;;;;;;11.20;4.77;;;;;;;-143.84;77.45;45028.13;5112605;28;20929;-72
2022/05/16 02:13:11;;;;;;;4.20;4.00;;;;;;;-143.84;78.43;45079.53;5112291;28;20439;-73
2022/05/16 02:15:42;;;;;;;5.07;4.73;;;;;;;-143.84;79.26;45035.75;5112283;28;20453;-72
2022/05/16 02:18:09;;;;;;;4.90;4.40;;;;;;;-143.84;79.39;45056.69;5112124;28;20447;-72
2022/05/16 02:20:37;;;;;;;5.80;5.30;;;;;;;-143.84;80.13;45071.91;5112051;28;20439;-72
2022/05/16 02:25:51;;;;;;;7.30;4.70;;;;;;;-143.84;80.82;45050.97;5111542;28;20427;-74
2022/05/16 02:28:20;;;;;;;4.77;4.37;;;;;;;-143.84;81.47;45043.34;5111302;28;20484;-73
2022/05/16 02:30:49;;;;;;;5.27;4.87;;;;;;;-143.84;82.24;45026.22;5111060;28;20479;-74
2022/05/16 02:33:17;;;;;;;5.60;5.20;;;;;;;-143.84;82.89;45014.78;5111420;27;20466;-74
2022/05/16 02:35:45;;;;;;;5.00;4.60;;;;;;;-143.84;83.85;45039.53;5111338;28;20441;-74
2022/05/16 02:38:14;;;;;;;5.90;5.40;;;;;;;-143.84;84.06;45022.41;5111218;28;20439;-74
2022/05/16 02:40:42;;;;;;;12.53;5.70;;;;;;;-143.84;83.72;45030.03;5111133;28;20438;-74
2022/05/16 02:43:09;;;;;;;6.73;5.30;;;;;;;-143.84;84.43;45010.97;5111346;28;20435;-73
2022/05/16 02:45:36;;;;;;;5.17;4.83;;;;;;;-143.84;84.84;44984.31;5111088;28;20431;-73
2022/05/16 02:48:05;;;;;;;5.63;5.13;;;;;;;-143.84;84.69;45033.84;5111054;28;20442;-74
2022/05/16 02:50:33;;;;;;;7.03;5.57;;;;;;;-143.84;84.43;45028.13;5110701;28;20528;-73
2022/05/16 02:53:00;;;;;;;5.53;5.13;;;;;;;-143.84;84.38;45005.28;5110854;28;20439;-73
2022/05/16 02:55:29;;;;;;;6.30;5.70;;;;;;;-143.84;84.52;45018.59;5110748;27;20442;-73
2022/05/16 02:57:56;;;;;;;5.77;5.27;;;;;;;-143.84;84.63;44988.13;5110767;28;20438;-73
2022/05/16 03:00:24;;;;;;;5.07;4.67;;;;;;;-143.84;84.67;45007.19;5109288;28;20470;-73
2022/05/16 03:02:51;;;;;;;5.80;5.30;;;;;;;-143.84;84.71;45064.31;5102513;27;20479;-74
2022/05/16 03:05:22;;;;;;;6.30;5.70;;;;;;;-143.84;84.45;45007.19;5096012;28;20863;-74
2022/05/16 03:07:49;;;;;;;7.60;5.77;;;;;;;-143.84;84.15;45018.59;5098785;27;21046;-75
2022/05/16 03:10:16;;;;;;;7.60;5.40;;;;;;;-143.84;83.47;45016.69;5110953;28;20439;-74
2022/05/16 03:12:45;;;;;;;5.70;5.30;;;;;;;-143.84;83.50;44995.75;5106222;28;20532;-74
2022/05/16 03:15:14;;;;;;;7.80;5.10;;;;;;;-143.84;83.50;45016.69;5101097;28;20992;-74
2022/05/16 03:17:41;;;;;;;5.07;4.67;;;;;;;-143.84;83.77;45010.97;5100750;28;20438;-74
2022/05/16 03:20:12;;;;;;;14.83;5.50;;;;;;;-143.84;83.63;45007.19;5096231;28;20447;-74
2022/05/16 03:22:41;;;;;;;5.73;5.30;;;;;;;-143.84;83.11;44997.66;5089811;28;21024;-76
2022/05/16 03:25:09;;;;;;;6.10;5.10;;;;;;;-143.84;82.33;45028.13;5103850;28;20451;-74
2022/05/16 03:27:37;;;;;;;4.53;4.13;;;;;;;-143.84;81.15;45037.66;5100833;28;21167;-74
2022/05/16 03:30:05;;;;;;;5.40;5.00;;;;;;;-143.84;80.94;45024.31;5101403;28;20447;-74
2022/05/16 03:32:32;;;;;;;7.80;4.67;;;;;;;-143.84;80.39;45026.22;5110473;28;20475;-76
2022/05/16 03:34:59;;;;;;;5.10;4.70;;;;;;;-143.84;80.24;45020.50;5110403;28;20463;-76
2022/05/16 03:37:26;;;;;;;5.03;4.63;;;;;;;-143.84;79.99;45014.78;5109084;28;20451;-76
2022/05/16 03:42:39;;;;;;;4.50;4.20;;;;;;;-143.84;78.38;45050.97;5109977;28;21181;-75
2022/05/16 03:45:07;;;;;;;5.73;4.50;;;;;;;-143.84;75.07;45014.78;5109370;28;20442;-76
2022/05/16 03:47:34;;;;;;;4.07;3.37;;;;;;;-143.84;71.38;45012.88;5109372;28;20862;-76
2022/05/16 03:50:01;;;;;;;4.40;4.10;;;;;;;-143.84;66.65;45001.47;5108827;28;20439;-75
2022/05/16 03:52:29;;;;;;;3.33;3.13;;;;;;;-143.84;62.56;45010.97;5108157;28;20475;-75
2022/05/16 03:54:58;;;;;;;3.30;3.10;;;;;;;-143.84;59.10;45001.47;5109848;28;20829;-76
2022/05/16 03:57:25;;;;;;;3.63;3.33;;;;;;;-143.84;56.60;44997.66;5110076;28;20447;-76
2022/05/16 03:59:52;;;;;;;3.30;3.10;;;;;;;-143.84;53.37;44988.13;5109507;28;20500;-76
2022/05/16 04:02:19;;;;;;;6.00;3.30;;;;;;;-143.84;50.55;44950.06;5109398;28;20536;-76
2022/05/16 04:04:46;;;;;;;5.53;2.90;;;;;;;-143.84;50.30;44980.53;5092472;28;20444;-77
2022/05/16 04:07:14;;;;;;;3.27;3.00;;;;;;;-143.84;49.14;44959.56;5090136;28;20837;-77
2022/05/16 04:09:41;;;;;;;2.67;2.43;;;;;;;-143.84;48.00;44967.19;5089729;28;20468;-77
2022/05/16 04:12:11;;;;;;;3.20;2.60;;;;;;;-143.84;46.76;44963.38;5089973;28;20483;-77
2022/05/16 04:14:38;;;;;;;3.53;2.93;;;;;;;-143.84;46.03;44967.19;5089824;28;20440;-77
2022/05/16 04:17:05;;;;;;;5.10;2.60;;;;;;;-143.84;45.79;44942.44;5089243;28;20440;-77
2022/05/16 04:19:32;;;;;;;3.43;2.70;;;;;;;-143.84;44.84;44942.44;5089138;28;20439;-77
2022/05/16 04:21:59;;;;;;;3.30;2.90;;;;;;;-143.84;44.58;44919.59;5088499;28;20463;-77
2022/05/16 04:24:26;;;;;;;5.87;2.40;;;;;;;-143.84;42.98;44942.44;5089117;28;20948;-77
2022/05/16 04:26:53;;;;;;;4.60;2.90;;;;;;;-143.84;43.84;44927.19;5093081;28;20867;-77
2022/05/16 04:29:22;;;;;;;5.60;2.80;;;;;;;-143.84;43.33;44936.72;5099862;28;20437;-77
2022/05/16 04:31:50;;;;;;;3.00;2.70;;;;;;;-143.84;43.45;44927.19;5096415;28;20556;-77
2022/05/16 04:34:17;;;;;;;2.60;2.40;;;;;;;-143.84;43.21;44929.09;5100533;28;20447;-77
2022/05/16 04:36:44;;;;;;;2.67;2.53;;;;;;;-143.84;42.91;44927.19;5098901;28;20444;-77
2022/05/16 04:39:11;;;;;;;2.97;2.87;;;;;;;-143.84;43.10;44961.47;5098782;28;20432;-77
2022/05/16 04:44:25;;;;;;;3.70;3.00;;;;;;;-143.84;43.22;44948.16;5098595;28;20419;-78
2022/05/16 04:46:52;;;;;;;5.03;3.23;;;;;;;-143.84;42.82;44934.81;5098370;28;20432;-77
2022/05/16 04:49:19;;;;;;;5.23;2.70;;;;;;;-143.84;40.67;44911.97;5092638;28;20509;-78
2022/05/16 04:51:46;;;;;;;11.00;3.10;;;;;;;-143.84;41.06;44904.34;5089474;28;20528;-77
2022/05/16 04:54:13;;;;;;;6.23;3.90;;;;;;;-143.84;42.32;44904.34;5089595;28;20436;-77
2022/05/16 04:56:41;;;;;;;8.27;6.80;;;;;;;-143.84;43.42;44923.41;5089407;28;20431;-77
2022/05/16 04:59:09;;;;;;;8.00;7.30;;;;;;;-143.84;43.14;44927.19;5089626;28;20435;-77
2022/05/16 05:01:37;;;;;;;5.43;4.93;;;;;;;-143.84;42.46;44921.50;5089443;28;20834;-77
2022/05/16 05:04:05;;;;;;;5.77;4.90;;;;;;;-143.84;43.42;44940.53;5095009;28;20452;-77
2022/05/16 05:06:33;;;;;;;17.40;5.93;;;;;;;-143.84;42.93;44932.91;5089333;28;20436;-77
2022/05/16 05:09:00;;;;;;;12.23;5.70;;;;;;;-143.84;43.32;44957.66;5089554;28;20435;-78
2022/05/16 05:17:08;;;;;;;9.57;5.93;;;;;;;-143.84;43.26;44936.72;5106458;28;20406;-77
2022/05/16 05:19:41;;;;;;;6.23;5.67;;;;;;;-143.84;42.19;44940.53;5109456;28;20475;-77
2022/05/16 05:22:09;;;;;;;9.20;6.90;;;;;;;-143.84;43.54;44948.16;5108935;28;20438;-77
2022/05/16 05:24:36;;;;;;;8.67;7.43;;;;;;;-143.84;44.68;44932.91;5107879;28;20507;-77
2022/05/16 05:27:04;;;;;;;11.10;7.17;;;;;;;-143.84;44.13;44915.78;5110020;28;20686;-77
2022/05/16 05:29:32;;;;;;;13.37;7.37;;;;;;;-143.84;43.11;44942.44;5111168;28;20791;-77
2022/05/16 05:32:01;;;;;;;8.67;7.63;;;;;;;-143.84;43.54;44925.31;5112377;28;20470;-77
2022/05/16 05:34:28;;;;;;;9.00;8.20;;;;;;;-143.84;42.65;44908.16;5111676;27;20991;-77
2022/05/16 05:36:56;;;;;;;12.23;8.70;;;;;;;-143.84;41.98;44929.09;5111278;27;20450;-77
2022/05/16 05:39:23;;;;;;;12.43;9.40;;;;;;;-143.84;42.02;44904.34;5112141;27;20447;-77
2022/05/16 05:41:50;;;;;;;20.47;8.60;;;;;;;-143.84;40.57;44900.53;5112165;28;20451;-77
2022/05/16 05:44:17;;;;;;;17.03;11.60;;;;;;;-143.84;41.78;44885.31;5112416;28;20431;-77
2022/05/16 05:46:46;;;;;;;17.20;11.83;;;;;;;-143.84;42.16;44911.97;5112152;28;20443;-77
2022/05/16 05:49:14;;;;;;;18.73;10.27;;;;;;;-143.84;42.75;44919.59;5112497;28;20447;-77
2022/05/16 05:51:43;;;;;;;12.60;8.70;;;;;;;-143.84;41.25;44911.97;5112339;28;20471;-77
2022/05/16 05:54:10;;;;;;;13.63;8.30;;;;;;;-143.84;39.12;44908.16;5111271;28;20450;-77
2022/05/16 05:56:38;;;;;;;19.73;9.10;;;;;;;-143.84;40.06;44892.94;5112449;28;20431;-77
2022/05/16 05:59:05;;;;;;;10.90;9.00;;;;;;;-143.84;39.77;44906.25;5112456;28;20431;-77
2022/05/16 06:01:33;;;;;;;18.70;15.43;;;;;;;-143.84;40.84;44910.06;5112083;27;20451;-77
2022/05/16 06:04:00;;;;;;;20.93;17.07;;;;;;;-143.84;42.44;44904.34;5112478;28;20431;-77
2022/05/16 06:06:28;;;;;;;20.40;16.13;;;;;;;-143.84;41.30;44881.50;5112353;28;20435;-77
2022/05/16 06:08:56;;;;;;;31.57;16.40;;;;;;;-143.84;40.32;44856.75;5111793;28;20477;-77
2022/05/16 06:11:27;;;;;;;18.73;10.27;;;;;;;-143.84;39.22;44877.69;5112431;28;20512;-77
2022/05/16 06:13:55;;;;;;;13.63;8.03;;;;;;;-143.84;39.91;44881.50;5112354;28;20967;-77
2022/05/16 06:16:22;;;;;;;26.10;15.27;;;;;;;-143.84;39.86;44892.94;5112275;28;20940;-78
2022/05/16 06:18:49;;;;;;;28.87;19.17;;;;;;;-143.84;40.40;44902.44;5112077;28;20439;-77
2022/05/16 06:21:17;;;;;;;27.93;19.87;;;;;;;-143.84;41.25;44892.94;5112256;28;20981;-77
2022/05/16 06:23:45;;;;;;;22.97;15.40;;;;;;;-143.84;40.53;44892.94;5112047;28;20496;-77
2022/05/16 06:26:13;;;;;;;17.50;12.97;;;;;;;-143.84;40.66;44898.66;5112495;28;21168;-78
2022/05/16 06:28:40;;;;;;;30.53;18.87;;;;;;;-143.84;42.03;44942.44;5111988;28;20917;-77
2022/05/16 06:31:07;;;;;;;20.00;16.70;;;;;;;-143.84;41.82;44892.94;5112147;28;20493;-78
2022/05/16 06:33:35;;;;;;;34.03;18.43;;;;;;;-143.84;41.87;44917.69;5111966;28;20483;-77
2022/05/16 06:36:05;;;;;;;23.03;15.50;;;;;;;-143.84;41.41;44915.78;5112302;28;20455;-77
2022/05/16 06:38:34;;;;;;;25.67;14.60;;;;;;;-143.84;41.20;44900.53;5111825;28;20875;-77
2022/05/16 06:41:03;;;;;;;18.30;14.97;;;;;;;-143.84;42.45;44932.91;5111627;28;20500;-77
2022/05/16 06:43:30;;;;;;;19.90;13.83;;;;;;;-143.84;41.85;44917.69;5112013;28;20512;-77
2022/05/16 06:45:58;;;;;;;25.43;20.17;;;;;;;-143.84;43.56;44936.72;5111986;28;20447;-77
2022/05/16 06:48:25;;;;;;;33.03;21.70;;;;;;;-143.84;44.48;44971.00;5111550;28;20900;-77
2022/05/16 06:50:53;;;;;;;25.00;17.10;;;;;;;-143.84;43.18;44931.00;5111695;28;20500;-77
2022/05/16 06:53:23;;;;;;;36.03;22.23;;;;;;;-143.84;44.58;44929.09;5111028;28;21044;-77
2022/05/16 06:55:50;;;;;;;24.97;20.23;;;;;;;-143.84;45.78;44940.53;5091485;28;20436;-77
2022/05/16 06:58:19;;;;;;;41.63;28.17;;;;;;;-143.84;47.52;44955.75;5091173;28;20451;-78
2022/05/16 07:00:47;;;;;;;39.63;28.50;;;;;;;-143.84;48.41;44969.09;5091165;28;20456;-77
2022/05/16 07:03:14;;;;;;;39.13;31.10;;;;;;;-143.84;49.92;44971.00;5090445;28;20999;-77
2022/05/16 07:05:42;;;;;;;46.13;27.50;;;;;;;-143.84;51.17;44961.47;5091124;28;20431;-77
2022/05/16 07:08:09;;;;;;;38.57;28.97;;;;;;;-143.84;51.12;44965.28;5091082;28;20458;-77
2022/05/16 07:10:37;;;;;;;42.40;28.43;;;;;;;-143.84;51.58;44967.19;5090033;28;20485;-77
2022/05/16 07:13:05;;;;;;;33.93;27.53;;;;;;;-143.84;51.81;44984.31;5090261;28;20973;-77
2022/05/16 07:15:33;;;;;;;50.00;26.63;;;;;;;-143.84;53.28;44967.19;5090645;28;20424;-78
2022/05/16 07:18:01;;;;;;;30.00;25.30;;;;;;;-143.84;53.44;44971.00;5090958;28;20456;-77
2022/05/16 07:20:28;;;;;;;36.47;26.70;;;;;;;-143.84;54.94;44978.63;5089488;28;20542;-77
2022/05/16 07:22:58;;;;;;;36.83;26.00;;;;;;;-143.84;56.57;44969.09;5090155;28;20435;-77
2022/05/16 07:25:27;;;;;;;36.67;27.80;;;;;;;-143.84;56.60;45007.19;5090596;28;20440;-77
2022/05/16 07:27:59;;;;;;;37.93;29.10;;;;;;;-143.84;55.70;44986.22;5090447;28;20965;-77
2022/05/16 07:30:28;;;;;;;45.17;27.53;;;;;;;-143.84;55.85;44984.31;5090679;28;20525;-77
2022/05/16 07:32:58;;;;;;;42.37;28.70;;;;;;;-143.84;56.00;44990.03;5090723;28;20498;-77
2022/05/16 07:35:29;;;;;;;39.43;28.33;;;;;;;-143.84;56.65;44974.81;5090548;28;20448;-77
2022/05/16 07:37:57;;;;;;;43.50;29.07;;;;;;;-143.84;56.21;44965.28;5090536;28;20439;-77
2022/05/16 07:40:26;;;;;;;49.47;27.53;;;;;;;-143.84;55.74;44963.38;5090539;28;20466;-77
2022/05/16 07:42:54;;;;;;;35.20;25.40;;;;;;;-143.84;55.63;44957.66;5090557;28;20869;-77
2022/05/16 07:45:22;;;;;;;46.27;25.47;;;;;;;-143.84;55.48;44974.81;5090496;28;20444;-77
2022/05/16 07:47:50;;;;;;;38.70;24.33;;;;;;;-143.84;57.31;44974.81;5090405;28;20436;-77
2022/05/16 07:50:19;;;;;;;39.57;23.57;;;;;;;-143.84;57.12;44961.47;5089562;28;20448;-77
2022/05/16 07:52:47;;;;;;;23.73;16.00;;;;;;;-143.84;52.72;44946.25;5090934;28;20778;-77
2022/05/16 07:55:16;;;;;;;24.97;16.30;;;;;;;-143.84;52.01;44974.81;5090069;28;20451;-77
2022/05/16 07:57:44;;;;;;;31.27;15.80;;;;;;;-143.84;52.22;44953.88;5090112;28;20458;-78
2022/05/16 08:00:12;;;;;;;21.67;14.37;;;;;;;-143.84;50.96;44980.53;5089940;28;20474;-77
2022/05/16 08:02:40;;;;;;;23.07;14.87;;;;;;;-143.84;49.83;44955.75;5089578;28;20471;-77
2022/05/16 08:05:09;;;;;;;23.00;12.57;;;;;;;-143.84;48.81;44957.66;5089939;28;20504;-77
2022/05/16 08:10:29;;;;;;;15.77;8.53;;;;;;;-143.84;45.42;44953.88;5089771;28;20439;-77
2022/05/16 08:10:30;;;;;;;13.63;12.00;;;;;;;-143.84;48.12;44910.06;5089917;28;20448;-78
2022/05/16 08:12:58;;;;;;;25.70;13.13;;;;;;;-143.84;48.71;44946.25;5089153;28;20476;-78
2022/05/16 08:15:26;;;;;;;20.90;12.50;;;;;;;-143.84;49.52;44957.66;5089291;28;20497;-78
2022/05/16 08:17:54;;;;;;;26.80;13.73;;;;;;;-143.84;49.25;44951.97;5088888;28;20523;-78
2022/05/16 08:20:21;;;;;;;26.30;12.43;;;;;;;-143.84;48.22;44925.31;5089347;28;20443;-78
2022/05/16 08:22:51;;;;;;;25.30;13.23;;;;;;;-143.84;48.38;44931.00;5089979;28;20432;-77
2022/05/16 08:25:18;;;;;;;16.10;13.63;;;;;;;-143.84;48.85;44974.81;5090625;28;20448;-75
2022/05/16 08:27:45;;;;;;;23.03;13.50;;;;;;;-143.84;49.34;44951.97;5090844;28;20432;-75
2022/05/16 08:30:14;;;;;;;16.77;12.40;;;;;;;-143.84;50.07;44971.00;5091177;28;20423;-75
2022/05/16 08:32:42;;;;;;;14.53;9.97;;;;;;;-143.84;49.14;44940.53;5090458;28;21004;-75
2022/05/16 08:35:11;;;;;;;14.40;11.73;;;;;;;-143.84;49.90;44940.53;5090298;28;20901;-75
2022/05/16 08:40:35;;;;;;;15.83;9.83;;;;;;;-143.84;50.83;44934.81;5090477;28;20948;-75
2022/05/16 08:43:06;;;;;;;7.43;6.60;;;;;;;-143.84;52.13;44927.19;5090598;28;20451;-75
2022/05/16 08:45:37;;;;;;;5.77;5.27;;;;;;;-143.84;51.45;44974.81;5090436;28;20933;-75
2022/05/16 08:48:09;;;;;;;10.93;5.00;;;;;;;-143.84;52.81;44976.72;5089620;28;20427;-75
2022/05/16 08:50:52;;;;;;;4.93;4.53;;;;;;;-143.84;53.76;44976.72;5090507;28;20436;-75
2022/05/16 08:53:25;;;;;;;9.60;4.80;;;;;;;-143.84;52.54;44942.44;5090149;28;21037;-75
2022/05/16 08:55:57;;;;;;;6.53;5.00;;;;;;;-143.84;53.95;44969.09;5089775;28;20440;-75
2022/05/16 08:58:29;;;;;;;4.97;4.50;;;;;;;-143.84;51.06;44955.75;5088845;28;20494;-75
2022/05/16 09:01:00;;;;;;;6.83;4.60;;;;;;;-143.84;48.48;44950.06;5089970;28;20523;-75
2022/05/16 09:03:36;;;;;;;4.73;4.40;;;;;;;-143.84;50.16;44953.88;5093741;28;20905;-75
2022/05/16 09:06:12;;;;;;;6.83;4.63;;;;;;;-143.84;48.61;44955.75;5094479;28;21178;-76
2022/05/16 09:08:49;;;;;;;6.50;4.30;;;;;;;-143.84;49.26;44938.63;5092279;28;20443;-76
2022/05/16 09:11:26;;;;;;;4.70;4.30;;;;;;;-143.84;47.82;44951.97;5092127;28;20431;-76
2022/05/16 09:13:58;;;;;;;5.63;4.60;;;;;;;-143.84;48.25;44965.28;5094155;28;20512;-75
2022/05/16 09:16:37;;;;;;;4.67;4.20;;;;;;;-143.84;47.94;44976.72;5093052;28;20445;-75
2022/05/16 09:19:16;;;;;;;7.10;4.40;;;;;;;-143.84;46.93;44946.25;5092841;28;20444;-75
2022/05/16 09:21:49;;;;;;;11.07;4.77;;;;;;;-143.84;47.98;44972.91;5093613;28;20941;-75
2022/05/16 09:24:26;;;;;;;7.20;4.23;;;;;;;-143.84;49.14;44972.91;5093981;28;20436;-76
2022/05/16 09:27:03;;;;;;;8.60;4.30;;;;;;;-143.84;50.53;44971.00;5093686;28;20448;-76
2022/05/16 09:29:32;;;;;;;4.93;4.03;;;;;;;-143.84;49.99;44991.94;5094239;28;20932;-76
2022/05/16 09:32:07;;;;;;;10.17;4.20;;;;;;;-143.84;53.64;44976.72;5093554;28;20436;-75
2022/05/16 09:34:34;;;;;;;4.50;4.10;;;;;;;-143.84;49.90;44990.03;5093166;28;20478;-75
2022/05/16 09:37:01;;;;;;;4.60;4.20;;;;;;;-143.84;50.99;44999.56;5093469;28;21010;-75
2022/05/16 09:39:31;;;;;;;7.30;4.87;;;;;;;-143.84;51.90;44969.09;5093593;28;20440;-75
2022/05/16 09:42:04;;;;;;;5.87;5.37;;;;;;;-143.84;50.89;44980.53;5093809;28;20440;-75
2022/05/16 09:44:35;;;;;;;4.60;4.20;;;;;;;-143.84;49.11;45001.47;5093409;28;21058;-75
2022/05/16 09:47:36;;;;;;;7.63;4.80;;;;;;;-143.84;52.09;44978.63;5093322;28;20458;-75
2022/05/16 09:50:15;;;;;;;4.70;4.40;;;;;;;-143.84;48.48;44984.31;5078214;28;20452;-75
2022/05/16 09:52:46;;;;;;;4.63;4.20;;;;;;;-143.84;50.11;44967.19;5090651;28;20518;-75
2022/05/16 09:55:24;;;;;;;6.60;5.40;;;;;;;-143.84;50.05;44972.91;5090924;28;20436;-75
2022/05/16 09:57:58;;;;;;;5.00;4.47;;;;;;;-143.84;48.06;44969.09;5092724;28;20516;-76
2022/05/16 10:00:36;;;;;;;6.60;4.43;;;;;;;-143.84;48.42;44999.56;5092894;28;20436;-76
2022/05/16 10:03:22;;;;;;;5.20;4.30;;;;;;;-143.84;45.76;44965.28;5092335;28;21014;-76
2022/05/16 10:05:52;;;;;;;5.70;3.70;;;;;;;-143.84;47.01;44974.81;5091566;28;20446;-74
2022/05/16 10:08:32;;;;;;;4.43;4.00;;;;;;;-143.84;44.64;44951.97;5091754;28;20451;-73
2022/05/16 10:11:03;;;;;;;5.33;3.23;;;;;;;-143.84;44.96;44961.47;5091527;28;20436;-74
2022/05/16 10:13:32;;;;;;;4.20;3.80;;;;;;;-143.84;46.28;45001.47;5090070;28;20532;-74
2022/05/16 10:16:02;;;;;;;4.40;4.10;;;;;;;-143.84;47.54;44951.97;5091115;28;20800;-74
2022/05/16 10:18:32;;;;;;;5.30;4.20;;;;;;;-143.84;46.78;44972.91;5091674;28;20914;-74
2022/05/16 10:21:03;;;;;;;3.80;3.60;;;;;;;-143.84;46.47;45010.97;5091664;28;20444;-74
2022/05/16 10:23:35;;;;;;;6.20;4.00;;;;;;;-143.84;46.45;44957.66;5091601;28;20519;-74
2022/05/16 10:26:07;;;;;;;4.27;3.80;;;;;;;-143.84;43.75;44976.72;5091679;28;20435;-74
2022/05/16 10:28:40;;;;;;;3.63;3.33;;;;;;;-143.84;42.28;44972.91;5091188;28;20450;-74
2022/05/16 10:34:06;;;;;;;3.37;3.13;;;;;;;-143.84;43.07;44976.72;5091412;28;20475;-74
2022/05/16 10:36:34;;;;;;;3.30;3.10;;;;;;;-143.84;41.87;44957.66;5091467;28;20471;-74
2022/05/16 10:39:05;;;;;;;8.70;2.87;;;;;;;-143.84;39.10;44942.44;5090779;28;20436;-74
2022/05/16 10:41:37;;;;;;;6.00;2.90;;;;;;;-143.84;38.63;44957.66;5090615;28;20505;-74
2022/05/16 10:44:20;;;;;;;6.50;3.33;;;;;;;-143.84;40.18;44959.56;5090171;28;20520;-74
2022/05/16 10:46:56;;;;;;;3.30;3.00;;;;;;;-143.84;39.24;44976.72;5090684;28;21002;-74
2022/05/16 10:49:26;;;;;;;3.53;3.23;;;;;;;-143.84;38.38;44961.47;5091097;28;20514;-73
2022/05/16 10:51:58;;;;;;;12.63;3.03;;;;;;;-143.84;37.39;44951.97;5090833;28;20945;-74
2022/05/16 10:54:27;;;;;;;5.27;2.93;;;;;;;-143.84;37.60;44961.47;5090349;28;20484;-74
2022/05/16 10:57:13;;;;;;;8.00;3.17;;;;;;;-143.84;38.89;44957.66;5090644;28;21042;-74
2022/05/16 11:00:07;;;;;;;3.80;3.40;;;;;;;-143.84;39.43;44972.91;5090648;28;20510;-74
2022/05/16 11:03:00;;;;;;;10.50;3.23;;;;;;;-143.84;39.58;44965.28;5090701;28;20848;-74
2022/05/16 11:05:39;;;;;;;7.03;3.50;;;;;;;-143.84;36.45;44950.06;5090510;28;20428;-74
2022/05/16 11:08:23;;;;;;;6.63;3.60;;;;;;;-143.84;38.06;44963.38;5090545;28;20510;-74
2022/05/16 11:10:57;;;;;;;7.40;3.70;;;;;;;-143.84;39.63;44957.66;5090549;28;20575;-73
2022/05/16 11:13:32;;;;;;;4.83;3.37;;;;;;;-143.84;39.73;44972.91;5090305;28;20479;-74
2022/05/16 11:16:08;;;;;;;5.20;3.00;;;;;;;-143.84;38.74;44950.06;5090330;28;20667;-74
2022/05/16 11:18:43;;;;;;;3.40;3.10;;;;;;;-143.84;37.44;44936.72;5090132;28;20895;-73
2022/05/16 11:21:26;;;;;;;7.80;3.20;;;;;;;-143.84;37.94;44929.09;5090605;28;20443;-75
2022/05/16 11:24:09;;;;;;;8.67;3.90;;;;;;;-143.84;35.99;44948.16;5099480;28;20463;-74
2022/05/16 11:26:43;;;;;;;4.23;3.40;;;;;;;-143.84;36.09;44936.72;5095637;28;20520;-74
2022/05/16 11:29:19;;;;;;;4.07;3.77;;;;;;;-143.84;37.98;44971.00;5095581;28;21355;-73
2022/05/16 11:32:02;;;;;;;5.10;3.87;;;;;;;-143.84;38.89;44957.66;5104995;28;20825;-74
2022/05/16 11:34:45;;;;;;;12.13;5.17;;;;;;;-143.84;38.04;44965.28;5090182;28;20479;-74
2022/05/16 11:37:23;;;;;;;5.47;3.43;;;;;;;-143.84;37.77;44951.97;5089770;28;20436;-74
2022/05/16 11:39:57;;;;;;;6.60;4.10;;;;;;;-143.84;37.05;44957.66;5107958;28;20492;-74
2022/05/16 11:42:33;;;;;;;3.53;3.23;;;;;;;-143.84;37.16;44971.00;5096474;28;20436;-74
2022/05/16 11:45:19;;;;;;;4.10;3.50;;;;;;;-143.84;36.91;44944.34;5099147;28;20881;-74
2022/05/16 11:47:52;;;;;;;4.80;4.00;;;;;;;-143.84;39.23;44967.19;5089953;28;21004;-74